sensor_id;sensor_type;location;lat;lon;timestamp;P1;durP1;ratioP1;P2;durP2;ratioP2
61869;SDS011;47810;42.264;23.826;2024-01-15T00:00:20;1.42;;;1.40;;
61869;SDS011;47810;42.264;23.826;2024-01-15T00:02:47;2.05;;;1.77;;
61869;SDS011;47810;42.264;23.826;2024-01-15T00:05:14;1.67;;;1.58;;
61869;SDS011;47810;42.264;23.826;2024-01-15T00:07:39;2.08;;;1.35;;
61869;SDS011;47810;42.264;23.826;2024-01-15T00:10:12;1.52;;;1.42;;
61869;SDS011;47810;42.264;23.826;2024-01-15T00:12:42;2.17;;;2.08;;
61869;SDS011;47810;42.264;23.826;2024-01-15T00:15:08;4.30;;;2.97;;
61869;SDS011;47810;42.264;23.826;2024-01-15T00:17:36;2.60;;;2.40;;
61869;SDS011;47810;42.264;23.826;2024-01-15T00:20:02;1.60;;;1.52;;
61869;SDS011;47810;42.264;23.826;2024-01-15T00:22:31;2.88;;;2.60;;
61869;SDS011;47810;42.264;23.826;2024-01-15T00:24:57;2.35;;;2.25;;
61869;SDS011;47810;42.264;23.826;2024-01-15T00:30:08;2.28;;;2.15;;
61869;SDS011;47810;42.264;23.826;2024-01-15T00:32:34;3.53;;;2.80;;
61869;SDS011;47810;42.264;23.826;2024-01-15T00:37:40;3.17;;;2.97;;
61869;SDS011;47810;42.264;23.826;2024-01-15T00:40:08;2.03;;;1.92;;
61869;SDS011;47810;42.264;23.826;2024-01-15T00:42:34;1.30;;;1.10;;
61869;SDS011;47810;42.264;23.826;2024-01-15T00:45:00;1.83;;;1.58;;
61869;SDS011;47810;42.264;23.826;2024-01-15T00:49:56;3.60;;;2.05;;
61869;SDS011;47810;42.264;23.826;2024-01-15T00:55:25;1.80;;;1.70;;
61869;SDS011;47810;42.264;23.826;2024-01-15T00:57:54;1.17;;;1.17;;
61869;SDS011;47810;42.264;23.826;2024-01-15T01:00:21;2.97;;;1.83;;
61869;SDS011;47810;42.264;23.826;2024-01-15T01:02:47;1.63;;;1.52;;
61869;SDS011;47810;42.264;23.826;2024-01-15T01:05:18;1.40;;;0.75;;
61869;SDS011;47810;42.264;23.826;2024-01-15T01:07:46;0.60;;;0.60;;
61869;SDS011;47810;42.264;23.826;2024-01-15T01:10:12;2.15;;;1.85;;
61869;SDS011;47810;42.264;23.826;2024-01-15T01:12:38;4.88;;;3.22;;
61869;SDS011;47810;42.264;23.826;2024-01-15T01:15:04;2.28;;;2.17;;
61869;SDS011;47810;42.264;23.826;2024-01-15T01:17:34;2.05;;;1.95;;
61869;SDS011;47810;42.264;23.826;2024-01-15T01:20:00;4.97;;;1.73;;
61869;SDS011;47810;42.264;23.826;2024-01-15T01:25:14;4.40;;;2.47;;
61869;SDS011;47810;42.264;23.826;2024-01-15T01:30:16;9.07;;;1.75;;
61869;SDS011;47810;42.264;23.826;2024-01-15T01:32:48;1.63;;;1.48;;
61869;SDS011;47810;42.264;23.826;2024-01-15T01:35:20;2.10;;;2.00;;
61869;SDS011;47810;42.264;23.826;2024-01-15T01:38:01;5.68;;;5.28;;
61869;SDS011;47810;42.264;23.826;2024-01-15T01:40:32;7.85;;;5.32;;
61869;SDS011;47810;42.264;23.826;2024-01-15T01:42:59;6.82;;;4.65;;
61869;SDS011;47810;42.264;23.826;2024-01-15T01:45:27;8.93;;;3.60;;
61869;SDS011;47810;42.264;23.826;2024-01-15T01:48:00;3.15;;;2.95;;
61869;SDS011;47810;42.264;23.826;2024-01-15T01:50:29;8.43;;;3.40;;
61869;SDS011;47810;42.264;23.826;2024-01-15T01:52:57;9.27;;;2.88;;
61869;SDS011;47810;42.264;23.826;2024-01-15T01:55:24;2.47;;;2.38;;
61869;SDS011;47810;42.264;23.826;2024-01-15T01:57:54;1.52;;;1.48;;
61869;SDS011;47810;42.264;23.826;2024-01-15T02:00:22;1.27;;;1.20;;
61869;SDS011;47810;42.264;23.826;2024-01-15T02:03:03;4.97;;;3.50;;
61869;SDS011;47810;42.264;23.826;2024-01-15T02:05:29;6.65;;;3.10;;
61869;SDS011;47810;42.264;23.826;2024-01-15T02:08:11;4.85;;;2.03;;
61869;SDS011;47810;42.264;23.826;2024-01-15T02:10:39;10.30;;;8.52;;
61869;SDS011;47810;42.264;23.826;2024-01-15T02:15:36;8.55;;;6.85;;
61869;SDS011;47810;42.264;23.826;2024-01-15T02:18:03;5.65;;;2.60;;
61869;SDS011;47810;42.264;23.826;2024-01-15T02:23:15;20.10;;;10.48;;
61869;SDS011;47810;42.264;23.826;2024-01-15T02:28:12;6.55;;;5.18;;
61869;SDS011;47810;42.264;23.826;2024-01-15T02:30:40;3.58;;;3.03;;
61869;SDS011;47810;42.264;23.826;2024-01-15T02:33:16;5.97;;;4.97;;
61869;SDS011;47810;42.264;23.826;2024-01-15T02:38:13;3.47;;;3.15;;
61869;SDS011;47810;42.264;23.826;2024-01-15T02:40:40;4.47;;;3.70;;
61869;SDS011;47810;42.264;23.826;2024-01-15T02:43:09;3.45;;;3.03;;
61869;SDS011;47810;42.264;23.826;2024-01-15T02:45:37;5.47;;;4.00;;
61869;SDS011;47810;42.264;23.826;2024-01-15T02:48:04;3.72;;;3.42;;
61869;SDS011;47810;42.264;23.826;2024-01-15T02:50:30;2.53;;;1.77;;
61869;SDS011;47810;42.264;23.826;2024-01-15T02:52:57;3.17;;;2.90;;
61869;SDS011;47810;42.264;23.826;2024-01-15T02:55:24;4.90;;;3.90;;
61869;SDS011;47810;42.264;23.826;2024-01-15T02:57:56;3.08;;;1.55;;
61869;SDS011;47810;42.264;23.826;2024-01-15T03:00:24;1.95;;;1.85;;
61869;SDS011;47810;42.264;23.826;2024-01-15T03:02:51;3.80;;;3.53;;
61869;SDS011;47810;42.264;23.826;2024-01-15T03:10:14;2.83;;;2.63;;
61869;SDS011;47810;42.264;23.826;2024-01-15T03:12:39;1.40;;;1.30;;
61869;SDS011;47810;42.264;23.826;2024-01-15T03:15:05;2.15;;;1.58;;
61869;SDS011;47810;42.264;23.826;2024-01-15T03:17:34;1.90;;;1.80;;
61869;SDS011;47810;42.264;23.826;2024-01-15T03:20:07;1.20;;;1.17;;
61869;SDS011;47810;42.264;23.826;2024-01-15T03:22:34;2.33;;;2.22;;
61869;SDS011;47810;42.264;23.826;2024-01-15T03:27:33;2.58;;;1.50;;
61869;SDS011;47810;42.264;23.826;2024-01-15T03:29:59;3.08;;;2.38;;
61869;SDS011;47810;42.264;23.826;2024-01-15T03:32:31;2.30;;;2.20;;
61869;SDS011;47810;42.264;23.826;2024-01-15T03:37:28;2.58;;;2.47;;
61869;SDS011;47810;42.264;23.826;2024-01-15T03:39:55;4.82;;;4.53;;
61869;SDS011;47810;42.264;23.826;2024-01-15T03:44:56;4.60;;;3.30;;
61869;SDS011;47810;42.264;23.826;2024-01-15T03:47:29;3.42;;;3.13;;
61869;SDS011;47810;42.264;23.826;2024-01-15T03:49:56;4.55;;;1.80;;
61869;SDS011;47810;42.264;23.826;2024-01-15T03:52:22;4.32;;;2.83;;
61869;SDS011;47810;42.264;23.826;2024-01-15T03:54:50;4.75;;;3.50;;
61869;SDS011;47810;42.264;23.826;2024-01-15T03:57:16;1.60;;;1.50;;
61869;SDS011;47810;42.264;23.826;2024-01-15T03:59:41;9.00;;;4.45;;
61869;SDS011;47810;42.264;23.826;2024-01-15T04:02:08;9.75;;;7.13;;
61869;SDS011;47810;42.264;23.826;2024-01-15T04:04:34;4.13;;;3.28;;
61869;SDS011;47810;42.264;23.826;2024-01-15T04:07:00;12.43;;;6.32;;
61869;SDS011;47810;42.264;23.826;2024-01-15T04:09:33;15.77;;;5.78;;
61869;SDS011;47810;42.264;23.826;2024-01-15T04:11:59;10.75;;;7.53;;
61869;SDS011;47810;42.264;23.826;2024-01-15T04:14:27;17.33;;;7.45;;
61869;SDS011;47810;42.264;23.826;2024-01-15T04:16:56;9.85;;;6.75;;
61869;SDS011;47810;42.264;23.826;2024-01-15T04:19:23;48.28;;;17.92;;
61869;SDS011;47810;42.264;23.826;2024-01-15T04:21:50;22.00;;;10.80;;
61869;SDS011;47810;42.264;23.826;2024-01-15T04:24:18;20.30;;;9.82;;
61869;SDS011;47810;42.264;23.826;2024-01-15T04:26:45;13.82;;;7.93;;
61869;SDS011;47810;42.264;23.826;2024-01-15T04:29:11;13.80;;;7.20;;
61869;SDS011;47810;42.264;23.826;2024-01-15T04:34:06;22.10;;;10.00;;
61869;SDS011;47810;42.264;23.826;2024-01-15T04:36:43;14.88;;;7.13;;
61869;SDS011;47810;42.264;23.826;2024-01-15T04:41:45;16.35;;;8.45;;
61869;SDS011;47810;42.264;23.826;2024-01-15T04:44:11;10.27;;;7.20;;
61869;SDS011;47810;42.264;23.826;2024-01-15T04:46:37;12.45;;;8.73;;
61869;SDS011;47810;42.264;23.826;2024-01-15T04:49:05;16.80;;;12.57;;
61869;SDS011;47810;42.264;23.826;2024-01-15T04:51:33;6.25;;;4.85;;
61869;SDS011;47810;42.264;23.826;2024-01-15T04:54:00;7.15;;;6.45;;
61869;SDS011;47810;42.264;23.826;2024-01-15T04:59:02;12.93;;;7.25;;
61869;SDS011;47810;42.264;23.826;2024-01-15T05:01:33;8.00;;;5.57;;
61869;SDS011;47810;42.264;23.826;2024-01-15T05:06:29;13.02;;;6.60;;
61869;SDS011;47810;42.264;23.826;2024-01-15T05:08:56;17.33;;;9.35;;
61869;SDS011;47810;42.264;23.826;2024-01-15T05:13:57;14.48;;;9.00;;
61869;SDS011;47810;42.264;23.826;2024-01-15T05:16:27;21.23;;;12.45;;
61869;SDS011;47810;42.264;23.826;2024-01-15T05:18:54;15.95;;;9.10;;
61869;SDS011;47810;42.264;23.826;2024-01-15T05:21:21;9.73;;;6.72;;
61869;SDS011;47810;42.264;23.826;2024-01-15T05:23:54;8.43;;;7.68;;
61869;SDS011;47810;42.264;23.826;2024-01-15T05:26:21;12.57;;;7.38;;
61869;SDS011;47810;42.264;23.826;2024-01-15T05:28:47;10.70;;;6.30;;
61869;SDS011;47810;42.264;23.826;2024-01-15T05:31:13;9.38;;;5.55;;
61869;SDS011;47810;42.264;23.826;2024-01-15T05:33:39;12.25;;;11.00;;
61869;SDS011;47810;42.264;23.826;2024-01-15T05:36:05;13.10;;;11.77;;
61869;SDS011;47810;42.264;23.826;2024-01-15T05:38:32;12.95;;;10.23;;
61869;SDS011;47810;42.264;23.826;2024-01-15T05:41:00;12.25;;;10.38;;
61869;SDS011;47810;42.264;23.826;2024-01-15T05:43:26;12.30;;;10.52;;
61869;SDS011;47810;42.264;23.826;2024-01-15T05:45:56;10.50;;;9.40;;
61869;SDS011;47810;42.264;23.826;2024-01-15T05:50:48;10.43;;;6.93;;
61869;SDS011;47810;42.264;23.826;2024-01-15T05:53:14;9.07;;;8.25;;
61869;SDS011;47810;42.264;23.826;2024-01-15T05:55:42;13.43;;;6.03;;
61869;SDS011;47810;42.264;23.826;2024-01-15T05:58:09;10.88;;;8.00;;
61869;SDS011;47810;42.264;23.826;2024-01-15T06:00:37;10.32;;;8.10;;
61869;SDS011;47810;42.264;23.826;2024-01-15T06:03:11;8.82;;;6.63;;
61869;SDS011;47810;42.264;23.826;2024-01-15T06:05:38;7.25;;;6.65;;
61869;SDS011;47810;42.264;23.826;2024-01-15T06:08:07;34.58;;;16.23;;
61869;SDS011;47810;42.264;23.826;2024-01-15T06:10:34;21.98;;;19.00;;
61869;SDS011;47810;42.264;23.826;2024-01-15T06:13:01;25.90;;;19.13;;
61869;SDS011;47810;42.264;23.826;2024-01-15T06:15:28;41.58;;;22.08;;
61869;SDS011;47810;42.264;23.826;2024-01-15T06:17:54;38.30;;;21.77;;
61869;SDS011;47810;42.264;23.826;2024-01-15T06:20:22;18.60;;;11.93;;
61869;SDS011;47810;42.264;23.826;2024-01-15T06:22:50;15.70;;;9.82;;
61869;SDS011;47810;42.264;23.826;2024-01-15T06:25:15;19.30;;;13.32;;
61869;SDS011;47810;42.264;23.826;2024-01-15T06:27:46;15.23;;;12.52;;
61869;SDS011;47810;42.264;23.826;2024-01-15T06:30:14;15.88;;;7.15;;
61869;SDS011;47810;42.264;23.826;2024-01-15T06:37:39;6.30;;;5.40;;
61869;SDS011;47810;42.264;23.826;2024-01-15T06:47:34;15.13;;;13.38;;
61869;SDS011;47810;42.264;23.826;2024-01-15T06:50:00;19.92;;;14.40;;
61869;SDS011;47810;42.264;23.826;2024-01-15T06:52:28;12.82;;;11.63;;
61869;SDS011;47810;42.264;23.826;2024-01-15T06:54:53;16.08;;;12.80;;
61869;SDS011;47810;42.264;23.826;2024-01-15T06:57:21;16.83;;;9.82;;
61869;SDS011;47810;42.264;23.826;2024-01-15T06:59:47;11.43;;;10.25;;
61869;SDS011;47810;42.264;23.826;2024-01-15T07:02:17;13.50;;;8.88;;
61869;SDS011;47810;42.264;23.826;2024-01-15T07:07:09;13.93;;;9.98;;
61869;SDS011;47810;42.264;23.826;2024-01-15T07:09:38;39.38;;;15.98;;
61869;SDS011;47810;42.264;23.826;2024-01-15T07:12:04;26.90;;;17.13;;
61869;SDS011;47810;42.264;23.826;2024-01-15T07:14:31;20.52;;;15.10;;
61869;SDS011;47810;42.264;23.826;2024-01-15T07:16:57;21.65;;;16.42;;
61869;SDS011;47810;42.264;23.826;2024-01-15T07:19:32;23.67;;;14.50;;
61869;SDS011;47810;42.264;23.826;2024-01-15T07:21:59;18.77;;;13.32;;
61869;SDS011;47810;42.264;23.826;2024-01-15T07:24:32;11.82;;;10.38;;
61869;SDS011;47810;42.264;23.826;2024-01-15T07:27:04;21.17;;;14.35;;
61869;SDS011;47810;42.264;23.826;2024-01-15T07:29:30;31.63;;;15.68;;
61869;SDS011;47810;42.264;23.826;2024-01-15T07:31:59;24.65;;;16.80;;
61869;SDS011;47810;42.264;23.826;2024-01-15T07:34:27;46.92;;;34.17;;
61869;SDS011;47810;42.264;23.826;2024-01-15T07:36:56;87.65;;;48.15;;
61869;SDS011;47810;42.264;23.826;2024-01-15T07:39:23;85.68;;;44.03;;
61869;SDS011;47810;42.264;23.826;2024-01-15T07:41:54;63.60;;;37.03;;
61869;SDS011;47810;42.264;23.826;2024-01-15T07:44:19;55.40;;;30.20;;
61869;SDS011;47810;42.264;23.826;2024-01-15T07:49:16;48.97;;;31.63;;
61869;SDS011;47810;42.264;23.826;2024-01-15T07:51:43;50.50;;;28.73;;
61869;SDS011;47810;42.264;23.826;2024-01-15T07:54:11;41.28;;;20.20;;
61869;SDS011;47810;42.264;23.826;2024-01-15T07:56:53;20.92;;;13.00;;
61869;SDS011;47810;42.264;23.826;2024-01-15T07:59:22;20.25;;;11.80;;
61869;SDS011;47810;42.264;23.826;2024-01-15T08:01:50;11.00;;;9.10;;
61869;SDS011;47810;42.264;23.826;2024-01-15T08:04:16;15.80;;;9.40;;
61869;SDS011;47810;42.264;23.826;2024-01-15T08:06:44;10.77;;;8.88;;
61869;SDS011;47810;42.264;23.826;2024-01-15T08:09:14;13.23;;;8.38;;
61869;SDS011;47810;42.264;23.826;2024-01-15T08:11:42;21.73;;;11.30;;
61869;SDS011;47810;42.264;23.826;2024-01-15T08:14:08;23.23;;;12.30;;
61869;SDS011;47810;42.264;23.826;2024-01-15T08:16:39;33.28;;;24.25;;
61869;SDS011;47810;42.264;23.826;2024-01-15T08:19:08;39.55;;;24.88;;
61869;SDS011;47810;42.264;23.826;2024-01-15T08:21:34;43.45;;;25.70;;
61869;SDS011;47810;42.264;23.826;2024-01-15T08:24:00;40.40;;;25.92;;
61869;SDS011;47810;42.264;23.826;2024-01-15T08:26:31;40.60;;;22.48;;
61869;SDS011;47810;42.264;23.826;2024-01-15T08:29:07;39.53;;;23.65;;
61869;SDS011;47810;42.264;23.826;2024-01-15T08:31:35;57.35;;;35.80;;
61869;SDS011;47810;42.264;23.826;2024-01-15T08:34:03;67.25;;;42.45;;
61869;SDS011;47810;42.264;23.826;2024-01-15T08:36:30;67.88;;;39.83;;
61869;SDS011;47810;42.264;23.826;2024-01-15T08:38:57;66.38;;;44.97;;
61869;SDS011;47810;42.264;23.826;2024-01-15T08:41:23;70.53;;;41.35;;
61869;SDS011;47810;42.264;23.826;2024-01-15T08:43:49;61.33;;;38.15;;
61869;SDS011;47810;42.264;23.826;2024-01-15T08:48:45;63.40;;;36.15;;
61869;SDS011;47810;42.264;23.826;2024-01-15T08:51:12;48.03;;;31.17;;
61869;SDS011;47810;42.264;23.826;2024-01-15T08:53:40;64.05;;;35.60;;
61869;SDS011;47810;42.264;23.826;2024-01-15T08:56:05;72.68;;;38.20;;
61869;SDS011;47810;42.264;23.826;2024-01-15T08:58:32;64.78;;;32.97;;
61869;SDS011;47810;42.264;23.826;2024-01-15T09:01:02;61.47;;;36.90;;
61869;SDS011;47810;42.264;23.826;2024-01-15T09:06:02;21.25;;;14.00;;
61869;SDS011;47810;42.264;23.826;2024-01-15T09:11:00;15.80;;;10.77;;
61869;SDS011;47810;42.264;23.826;2024-01-15T09:13:29;12.32;;;6.78;;
61869;SDS011;47810;42.264;23.826;2024-01-15T09:16:05;11.80;;;7.13;;
61869;SDS011;47810;42.264;23.826;2024-01-15T09:18:37;11.40;;;8.30;;
61869;SDS011;47810;42.264;23.826;2024-01-15T09:21:06;10.40;;;7.57;;
61869;SDS011;47810;42.264;23.826;2024-01-15T09:23:32;14.90;;;9.38;;
61869;SDS011;47810;42.264;23.826;2024-01-15T09:26:09;8.13;;;6.43;;
61869;SDS011;47810;42.264;23.826;2024-01-15T09:31:16;22.00;;;12.25;;
61869;SDS011;47810;42.264;23.826;2024-01-15T09:38:59;25.67;;;7.15;;
61869;SDS011;47810;42.264;23.826;2024-01-15T09:44:03;13.70;;;9.05;;
61869;SDS011;47810;42.264;23.826;2024-01-15T09:54:02;16.25;;;10.77;;
61869;SDS011;47810;42.264;23.826;2024-01-15T09:56:46;17.33;;;11.40;;
61869;SDS011;47810;42.264;23.826;2024-01-15T09:59:19;15.77;;;8.75;;
61869;SDS011;47810;42.264;23.826;2024-01-15T10:01:59;10.73;;;8.32;;
61869;SDS011;47810;42.264;23.826;2024-01-15T10:04:38;14.68;;;7.78;;
61869;SDS011;47810;42.264;23.826;2024-01-15T10:07:05;12.07;;;7.82;;
61869;SDS011;47810;42.264;23.826;2024-01-15T10:12:03;9.93;;;7.88;;
61869;SDS011;47810;42.264;23.826;2024-01-15T10:14:34;4.95;;;4.45;;
61869;SDS011;47810;42.264;23.826;2024-01-15T10:17:00;8.98;;;5.53;;
61869;SDS011;47810;42.264;23.826;2024-01-15T10:19:32;7.97;;;5.05;;
61869;SDS011;47810;42.264;23.826;2024-01-15T10:22:03;9.95;;;6.63;;
61869;SDS011;47810;42.264;23.826;2024-01-15T10:24:40;16.38;;;13.90;;
61869;SDS011;47810;42.264;23.826;2024-01-15T10:27:12;12.05;;;7.70;;
61869;SDS011;47810;42.264;23.826;2024-01-15T10:29:41;9.73;;;8.40;;
61869;SDS011;47810;42.264;23.826;2024-01-15T10:32:17;16.10;;;9.88;;
61869;SDS011;47810;42.264;23.826;2024-01-15T10:34:43;9.15;;;6.43;;
61869;SDS011;47810;42.264;23.826;2024-01-15T10:43:13;3.47;;;2.10;;
61869;SDS011;47810;42.264;23.826;2024-01-15T10:54:13;4.15;;;3.58;;
61869;SDS011;47810;42.264;23.826;2024-01-15T10:56:40;6.30;;;4.22;;
61869;SDS011;47810;42.264;23.826;2024-01-15T10:59:15;5.55;;;2.72;;
61869;SDS011;47810;42.264;23.826;2024-01-15T11:01:44;7.03;;;3.50;;
61869;SDS011;47810;42.264;23.826;2024-01-15T11:06:52;10.27;;;6.85;;
61869;SDS011;47810;42.264;23.826;2024-01-15T11:09:37;5.82;;;3.67;;
61869;SDS011;47810;42.264;23.826;2024-01-15T11:14:45;7.80;;;4.43;;
61869;SDS011;47810;42.264;23.826;2024-01-15T11:19:45;3.13;;;2.35;;
61869;SDS011;47810;42.264;23.826;2024-01-15T11:25:03;18.90;;;8.43;;
61869;SDS011;47810;42.264;23.826;2024-01-15T11:33:04;6.65;;;3.15;;
61869;SDS011;47810;42.264;23.826;2024-01-15T11:36:05;8.80;;;5.15;;
61869;SDS011;47810;42.264;23.826;2024-01-15T11:46:49;6.88;;;3.33;;
61869;SDS011;47810;42.264;23.826;2024-01-15T11:52:46;20.17;;;8.68;;
61869;SDS011;47810;42.264;23.826;2024-01-15T11:55:39;9.90;;;5.72;;
61869;SDS011;47810;42.264;23.826;2024-01-15T12:07:24;4.00;;;3.50;;
61869;SDS011;47810;42.264;23.826;2024-01-15T12:21:54;3.25;;;2.42;;
61869;SDS011;47810;42.264;23.826;2024-01-15T12:24:26;2.47;;;1.83;;
61869;SDS011;47810;42.264;23.826;2024-01-15T12:39:03;2.05;;;1.90;;
61869;SDS011;47810;42.264;23.826;2024-01-15T12:44:38;5.82;;;3.20;;
61869;SDS011;47810;42.264;23.826;2024-01-15T12:47:22;5.20;;;4.28;;
61869;SDS011;47810;42.264;23.826;2024-01-15T12:55:25;8.30;;;4.35;;
61869;SDS011;47810;42.264;23.826;2024-01-15T12:57:51;4.80;;;4.15;;
61869;SDS011;47810;42.264;23.826;2024-01-15T13:00:27;4.93;;;3.50;;
61869;SDS011;47810;42.264;23.826;2024-01-15T13:02:53;5.57;;;3.65;;
61869;SDS011;47810;42.264;23.826;2024-01-15T13:17:21;9.95;;;4.95;;
61869;SDS011;47810;42.264;23.826;2024-01-15T13:26:23;8.10;;;5.30;;
61869;SDS011;47810;42.264;23.826;2024-01-15T13:31:51;8.52;;;5.32;;
61869;SDS011;47810;42.264;23.826;2024-01-15T13:39:35;14.27;;;8.18;;
61869;SDS011;47810;42.264;23.826;2024-01-15T13:42:18;13.82;;;9.15;;
61869;SDS011;47810;42.264;23.826;2024-01-15T13:54:07;6.45;;;5.13;;
61869;SDS011;47810;42.264;23.826;2024-01-15T13:56:36;11.95;;;6.60;;
61869;SDS011;47810;42.264;23.826;2024-01-15T14:01:43;13.00;;;6.70;;
61869;SDS011;47810;42.264;23.826;2024-01-15T14:07:47;25.30;;;15.20;;
61869;SDS011;47810;42.264;23.826;2024-01-15T14:10:13;12.48;;;8.23;;
61869;SDS011;47810;42.264;23.826;2024-01-15T14:12:45;17.10;;;10.07;;
61869;SDS011;47810;42.264;23.826;2024-01-15T14:17:55;10.20;;;7.43;;
61869;SDS011;47810;42.264;23.826;2024-01-15T14:28:22;14.63;;;9.07;;
61869;SDS011;47810;42.264;23.826;2024-01-15T14:33:43;14.50;;;8.05;;
61869;SDS011;47810;42.264;23.826;2024-01-15T14:36:14;13.88;;;9.15;;
61869;SDS011;47810;42.264;23.826;2024-01-15T14:41:10;13.98;;;9.27;;
61869;SDS011;47810;42.264;23.826;2024-01-15T14:43:36;11.77;;;8.05;;
61869;SDS011;47810;42.264;23.826;2024-01-15T14:48:48;26.15;;;14.65;;
61869;SDS011;47810;42.264;23.826;2024-01-15T14:51:14;21.77;;;13.45;;
61869;SDS011;47810;42.264;23.826;2024-01-15T14:53:45;22.13;;;13.55;;
61869;SDS011;47810;42.264;23.826;2024-01-15T14:56:12;18.85;;;8.73;;
61869;SDS011;47810;42.264;23.826;2024-01-15T15:03:49;14.95;;;10.20;;
61869;SDS011;47810;42.264;23.826;2024-01-15T15:06:22;11.95;;;8.15;;
61869;SDS011;47810;42.264;23.826;2024-01-15T15:08:59;12.27;;;8.50;;
61869;SDS011;47810;42.264;23.826;2024-01-15T15:11:26;19.20;;;11.05;;
61869;SDS011;47810;42.264;23.826;2024-01-15T15:13:56;32.20;;;16.92;;
61869;SDS011;47810;42.264;23.826;2024-01-15T15:19:11;45.78;;;23.60;;
61869;SDS011;47810;42.264;23.826;2024-01-15T15:24:45;42.85;;;25.17;;
61869;SDS011;47810;42.264;23.826;2024-01-15T15:27:17;43.70;;;26.60;;
61869;SDS011;47810;42.264;23.826;2024-01-15T15:29:47;39.25;;;25.92;;
61869;SDS011;47810;42.264;23.826;2024-01-15T15:32:16;39.28;;;23.55;;
61869;SDS011;47810;42.264;23.826;2024-01-15T15:34:43;46.03;;;23.20;;
61869;SDS011;47810;42.264;23.826;2024-01-15T15:37:13;51.90;;;31.17;;
61869;SDS011;47810;42.264;23.826;2024-01-15T15:39:47;63.58;;;34.47;;
61869;SDS011;47810;42.264;23.826;2024-01-15T15:42:20;38.00;;;26.60;;
61869;SDS011;47810;42.264;23.826;2024-01-15T15:44:49;60.92;;;31.17;;
61869;SDS011;47810;42.264;23.826;2024-01-15T15:47:23;39.08;;;26.15;;
61869;SDS011;47810;42.264;23.826;2024-01-15T15:49:51;37.15;;;24.50;;
61869;SDS011;47810;42.264;23.826;2024-01-15T15:52:16;22.10;;;15.80;;
61869;SDS011;47810;42.264;23.826;2024-01-15T15:54:50;16.75;;;11.98;;
61869;SDS011;47810;42.264;23.826;2024-01-15T15:57:28;18.23;;;11.60;;
61869;SDS011;47810;42.264;23.826;2024-01-15T16:02:41;10.63;;;8.32;;
61869;SDS011;47810;42.264;23.826;2024-01-15T16:05:07;19.00;;;12.38;;
61869;SDS011;47810;42.264;23.826;2024-01-15T16:07:43;25.58;;;16.55;;
61869;SDS011;47810;42.264;23.826;2024-01-15T16:10:10;17.02;;;12.02;;
61869;SDS011;47810;42.264;23.826;2024-01-15T16:12:38;17.25;;;13.48;;
61869;SDS011;47810;42.264;23.826;2024-01-15T16:15:16;27.13;;;16.90;;
61869;SDS011;47810;42.264;23.826;2024-01-15T16:20:18;23.98;;;16.70;;
61869;SDS011;47810;42.264;23.826;2024-01-15T16:22:55;25.15;;;14.82;;
61869;SDS011;47810;42.264;23.826;2024-01-15T16:25:21;31.42;;;20.65;;
61869;SDS011;47810;42.264;23.826;2024-01-15T16:30:40;72.45;;;41.05;;
61869;SDS011;47810;42.264;23.826;2024-01-15T16:35:45;61.08;;;32.60;;
61869;SDS011;47810;42.264;23.826;2024-01-15T16:40:44;54.72;;;26.13;;
61869;SDS011;47810;42.264;23.826;2024-01-15T16:45:51;44.70;;;27.85;;
61869;SDS011;47810;42.264;23.826;2024-01-15T16:50:45;32.05;;;20.42;;
61869;SDS011;47810;42.264;23.826;2024-01-15T16:53:19;41.35;;;22.05;;
61869;SDS011;47810;42.264;23.826;2024-01-15T16:55:45;32.70;;;16.35;;
61869;SDS011;47810;42.264;23.826;2024-01-15T16:58:13;25.73;;;17.75;;
61869;SDS011;47810;42.264;23.826;2024-01-15T17:00:47;27.25;;;18.33;;
61869;SDS011;47810;42.264;23.826;2024-01-15T17:03:13;24.80;;;16.27;;
61869;SDS011;47810;42.264;23.826;2024-01-15T17:09:07;17.17;;;12.88;;
61869;SDS011;47810;42.264;23.826;2024-01-15T17:14:19;24.90;;;15.63;;
61869;SDS011;47810;42.264;23.826;2024-01-15T17:16:46;49.88;;;23.02;;
61869;SDS011;47810;42.264;23.826;2024-01-15T17:19:12;43.38;;;22.25;;
61869;SDS011;47810;42.264;23.826;2024-01-15T17:21:47;37.22;;;24.90;;
61869;SDS011;47810;42.264;23.826;2024-01-15T17:24:15;43.70;;;25.48;;
61869;SDS011;47810;42.264;23.826;2024-01-15T17:26:43;49.45;;;26.02;;
61869;SDS011;47810;42.264;23.826;2024-01-15T17:29:18;61.08;;;31.25;;
61869;SDS011;47810;42.264;23.826;2024-01-15T17:31:54;66.95;;;35.45;;
61869;SDS011;47810;42.264;23.826;2024-01-15T17:34:39;54.78;;;28.83;;
61869;SDS011;47810;42.264;23.826;2024-01-15T17:37:11;42.20;;;23.70;;
61869;SDS011;47810;42.264;23.826;2024-01-15T17:39:43;39.95;;;20.98;;
61869;SDS011;47810;42.264;23.826;2024-01-15T17:42:17;42.65;;;20.27;;
61869;SDS011;47810;42.264;23.826;2024-01-15T17:44:43;33.22;;;22.13;;
61869;SDS011;47810;42.264;23.826;2024-01-15T17:49:42;37.55;;;21.77;;
61869;SDS011;47810;42.264;23.826;2024-01-15T17:52:08;39.95;;;20.05;;
61869;SDS011;47810;42.264;23.826;2024-01-15T17:54:59;31.85;;;17.77;;
61869;SDS011;47810;42.264;23.826;2024-01-15T17:57:29;41.22;;;24.27;;
61869;SDS011;47810;42.264;23.826;2024-01-15T17:59:56;46.90;;;27.00;;
61869;SDS011;47810;42.264;23.826;2024-01-15T18:02:32;50.92;;;26.02;;
61869;SDS011;47810;42.264;23.826;2024-01-15T18:05:00;51.05;;;28.83;;
61869;SDS011;47810;42.264;23.826;2024-01-15T18:07:26;38.95;;;21.65;;
61869;SDS011;47810;42.264;23.826;2024-01-15T18:09:53;44.58;;;25.80;;
61869;SDS011;47810;42.264;23.826;2024-01-15T18:14:59;29.88;;;20.50;;
61869;SDS011;47810;42.264;23.826;2024-01-15T18:20:02;34.85;;;22.92;;
61869;SDS011;47810;42.264;23.826;2024-01-15T18:22:32;19.48;;;14.38;;
61869;SDS011;47810;42.264;23.826;2024-01-15T18:25:07;26.65;;;17.38;;
61869;SDS011;47810;42.264;23.826;2024-01-15T18:30:10;35.70;;;23.15;;
61869;SDS011;47810;42.264;23.826;2024-01-15T18:32:45;47.33;;;25.90;;
61869;SDS011;47810;42.264;23.826;2024-01-15T18:35:16;37.75;;;26.13;;
61869;SDS011;47810;42.264;23.826;2024-01-15T18:37:43;52.80;;;32.35;;
61869;SDS011;47810;42.264;23.826;2024-01-15T18:40:12;47.22;;;31.45;;
61869;SDS011;47810;42.264;23.826;2024-01-15T18:45:41;48.67;;;32.40;;
61869;SDS011;47810;42.264;23.826;2024-01-15T18:48:08;55.50;;;34.28;;
61869;SDS011;47810;42.264;23.826;2024-01-15T18:53:13;57.08;;;36.00;;
61869;SDS011;47810;42.264;23.826;2024-01-15T18:55:41;62.53;;;34.97;;
61869;SDS011;47810;42.264;23.826;2024-01-15T18:58:16;49.78;;;25.58;;
61869;SDS011;47810;42.264;23.826;2024-01-15T19:00:52;39.17;;;24.80;;
61869;SDS011;47810;42.264;23.826;2024-01-15T19:03:18;27.92;;;19.95;;
61869;SDS011;47810;42.264;23.826;2024-01-15T19:05:50;29.45;;;19.77;;
61869;SDS011;47810;42.264;23.826;2024-01-15T19:08:15;35.13;;;19.95;;
61869;SDS011;47810;42.264;23.826;2024-01-15T19:10:42;31.67;;;16.63;;
61869;SDS011;47810;42.264;23.826;2024-01-15T19:13:08;33.33;;;18.98;;
61869;SDS011;47810;42.264;23.826;2024-01-15T19:15:36;28.73;;;19.33;;
61869;SDS011;47810;42.264;23.826;2024-01-15T19:18:08;27.67;;;18.13;;
61869;SDS011;47810;42.264;23.826;2024-01-15T19:20:34;35.38;;;18.05;;
61869;SDS011;47810;42.264;23.826;2024-01-15T19:23:02;16.85;;;13.10;;
61869;SDS011;47810;42.264;23.826;2024-01-15T19:30:26;27.00;;;18.63;;
61869;SDS011;47810;42.264;23.826;2024-01-15T19:32:53;23.92;;;16.52;;